Time;durP1;ratioP1;P1;durP2;ratioP2;P2;SDS_P1;SDS_P2;PMS_P1;PMS_P2;Temp;Humidity;BMP_temperature;BMP_pressure;BME280_temperature;BME280_humidity;BME280_pressure;Samples;Min_cycle;Max_cycle;Signal;HPM_P1;HPM_P2
2023/08/04 00:00:54;;;;;;;;;;;;;;;;;;4918484;29;19922;-92
2023/08/04 00:03:20;;;;;;;;;;;;;;;;;;4918207;29;19929;-92
2023/08/04 00:05:46;;;;;;;;;;;;;;;;;;4917801;29;19923;-92
2023/08/04 00:08:12;;;;;;;;;;;;;;;;;;4934035;29;19926;-93
2023/08/04 00:10:38;;;;;;;;;;;;;;;;;;4918434;29;19923;-91
2023/08/04 00:13:03;;;;;;;;;;;;;;;;;;4935052;29;19949;-92
2023/08/04 00:15:29;;;;;;;;;;;;;;;;;;4920913;29;19923;-92
2023/08/04 00:17:56;;;;;;;;;;;;;;;;;;4937325;29;19942;-93
2023/08/04 00:20:22;;;;;;;;;;;;;;;;;;4921590;29;19962;-93
2023/08/04 00:22:48;;;;;;;;;;;;;;;;;;4921445;29;19923;-92
2023/08/04 00:25:14;;;;;;;;;;;;;;;;;;4921305;29;19950;-93
2023/08/04 00:27:40;;;;;;;;;;;;;;;;;;4921406;29;19926;-93
2023/08/04 00:30:06;;;;;;;;;;;;;;;;;;4921627;29;19930;-93
2023/08/04 00:32:32;;;;;;;;;;;;;;;;;;4937144;29;19922;-93
2023/08/04 00:34:59;;;;;;;;;;;;;;;;;;4921367;29;20290;-93
2023/08/04 00:37:24;;;;;;;;;;;;;;;;;;4921482;29;19927;-94
2023/08/04 00:39:50;;;;;;;;;;;;;;;;;;4921444;29;19933;-93
2023/08/04 00:42:16;;;;;;;;;;;;;;;;;;4936876;29;20022;-94
2023/08/04 00:44:42;;;;;;;;;;;;;;;;;;4921373;29;19973;-93
2023/08/04 00:47:11;;;;;;;;;;;;;;;;;;4937221;29;19951;-92
2023/08/04 00:49:37;;;;;;;;;;;;;;;;;;4921085;29;19927;-92
2023/08/04 00:52:03;;;;;;;;;;;;;;;;;;4920768;29;19922;-92
2023/08/04 00:54:29;;;;;;;;;;;;;;;;;;4921139;29;19923;-91
2023/08/04 00:56:55;;;;;;;;;;;;;;;;;;4937643;29;20308;-92
2023/08/04 00:59:21;;;;;;;;;;;;;;;;;;4938203;29;20058;-92
2023/08/04 01:01:47;;;;;;;;;;;;;;;;;;4921012;29;20290;-91
2023/08/04 01:04:13;;;;;;;;;;;;;;;;;;4921140;29;20213;-92
2023/08/04 01:06:39;;;;;;;;;;;;;;;;;;4937988;29;20013;-92
2023/08/04 01:09:05;;;;;;;;;;;;;;;;;;4936437;29;20013;-93
2023/08/04 01:11:30;;;;;;;;;;;;;;;;;;4920634;29;19934;-92
2023/08/04 01:13:56;;;;;;;;;;;;;;;;;;4920404;29;20073;-92
2023/08/04 01:16:22;;;;;;;;;;;;;;;;;;4920283;29;19922;-92
2023/08/04 01:18:48;;;;;;;;;;;;;;;;;;4920359;29;19922;-92
2023/08/04 01:21:14;;;;;;;;;;;;;;;;;;4920583;29;19949;-92
2023/08/04 01:23:40;;;;;;;;;;;;;;;;;;4920341;29;19930;-92
2023/08/04 01:26:10;;;;;;;;;;;;;;;;;;4935373;29;20099;-92
2023/08/04 01:28:36;;;;;;;;;;;;;;;;;;4935907;29;20093;-92
2023/08/04 01:31:03;;;;;;;;;;;;;;;;;;4935541;29;20026;-92
2023/08/04 01:33:29;;;;;;;;;;;;;;;;;;4920115;29;20046;-92
2023/08/04 01:35:55;;;;;;;;;;;;;;;;;;4935995;29;19931;-92
2023/08/04 01:38:21;;;;;;;;;;;;;;;;;;4919989;29;19922;-92
2023/08/04 01:40:47;;;;;;;;;;;;;;;;;;4920059;29;19989;-93
2023/08/04 01:43:13;;;;;;;;;;;;;;;;;;4920231;29;20374;-93
2023/08/04 01:45:42;;;;;;;;;;;;;;;;;;4935989;29;19948;-93
2023/08/04 01:48:08;;;;;;;;;;;;;;;;;;4919916;29;19934;-94
2023/08/04 01:50:34;;;;;;;;;;;;;;;;;;4920050;29;19989;-95
2023/08/04 01:53:00;;;;;;;;;;;;;;;;;;4919961;29;19923;-94
2023/08/04 01:55:26;;;;;;;;;;;;;;;;;;4919999;29;19929;-94
2023/08/04 01:57:52;;;;;;;;;;;;;;;;;;4935665;29;19929;-95
2023/08/04 02:00:18;;;;;;;;;;;;;;;;;;4935731;29;20294;-94
2023/08/04 02:02:44;;;;;;;;;;;;;;;;;;4920027;29;19926;-94
2023/08/04 02:05:13;;;;;;;;;;;;;;;;;;4935687;29;20371;-92
2023/08/04 02:07:39;;;;;;;;;;;;;;;;;;4919528;29;19982;-94
2023/08/04 02:10:05;;;;;;;;;;;;;;;;;;4919796;29;20077;-93
2023/08/04 02:12:31;;;;;;;;;;;;;;;;;;4919814;29;19986;-93
2023/08/04 02:14:57;;;;;;;;;;;;;;;;;;4935558;29;19922;-92
2023/08/04 02:17:23;;;;;;;;;;;;;;;;;;4935124;29;20009;-92
2023/08/04 02:19:49;;;;;;;;;;;;;;;;;;4919645;29;19923;-92
2023/08/04 02:22:15;;;;;;;;;;;;;;;;;;4919300;29;19923;-93
2023/08/04 02:24:41;;;;;;;;;;;;;;;;;;4935302;29;19923;-94
2023/08/04 02:27:07;;;;;;;;;;;;;;;;;;4919405;29;19926;-94
2023/08/04 02:29:33;;;;;;;;;;;;;;;;;;4919382;29;20030;-94
2023/08/04 02:31:59;;;;;;;;;;;;;;;;;;4919675;29;19923;-92
2023/08/04 02:34:25;;;;;;;;;;;;;;;;;;4919146;29;19927;-93
2023/08/04 02:36:51;;;;;;;;;;;;;;;;;;4919489;29;19929;-95
2023/08/04 02:39:16;;;;;;;;;;;;;;;;;;4933940;29;20375;-94
2023/08/04 02:41:42;;;;;;;;;;;;;;;;;;4934894;29;19981;-94
2023/08/04 02:44:08;;;;;;;;;;;;;;;;;;4919300;29;19923;-94
2023/08/04 02:46:34;;;;;;;;;;;;;;;;;;4934924;29;19950;-93
2023/08/04 02:49:00;;;;;;;;;;;;;;;;;;4918850;29;19950;-93
2023/08/04 02:51:26;;;;;;;;;;;;;;;;;;4918546;29;19930;-94
2023/08/04 02:53:52;;;;;;;;;;;;;;;;;;4919513;29;19934;-92
2023/08/04 02:56:18;;;;;;;;;;;;;;;;;;4934597;29;20030;-91
2023/08/04 02:58:44;;;;;;;;;;;;;;;;;;4918809;29;20018;-90
2023/08/04 03:01:10;;;;;;;;;;;;;;;;;;4934576;29;20334;-91
2023/08/04 03:03:36;;;;;;;;;;;;;;;;;;4934459;29;19997;-93
2023/08/04 03:06:02;;;;;;;;;;;;;;;;;;4918234;29;19988;-93
2023/08/04 03:08:28;;;;;;;;;;;;;;;;;;4934299;29;19927;-92
2023/08/04 03:10:54;;;;;;;;;;;;;;;;;;4934504;29;19931;-93
2023/08/04 03:13:20;;;;;;;;;;;;;;;;;;4918569;29;19930;-93
2023/08/04 03:15:46;;;;;;;;;;;;;;;;;;4934415;29;19923;-93
2023/08/04 03:18:15;;;;;;;;;;;;;;;;;;4918429;29;19927;-94
2023/08/04 03:20:41;;;;;;;;;;;;;;;;;;4934133;29;19922;-92
2023/08/04 03:23:07;;;;;;;;;;;;;;;;;;4919627;29;19945;-92
2023/08/04 03:25:33;;;;;;;;;;;;;;;;;;4920290;29;20286;-93
2023/08/04 03:27:59;;;;;;;;;;;;;;;;;;4935465;29;19934;-92
2023/08/04 03:30:25;;;;;;;;;;;;;;;;;;4937915;29;19927;-93
2023/08/04 03:32:51;;;;;;;;;;;;;;;;;;4935210;29;19922;-92
2023/08/04 03:35:17;;;;;;;;;;;;;;;;;;4933915;29;19942;-93
2023/08/04 03:37:42;;;;;;;;;;;;;;;;;;4934168;29;19929;-93
2023/08/04 03:40:08;;;;;;;;;;;;;;;;;;4918266;29;19962;-93
2023/08/04 03:42:34;;;;;;;;;;;;;;;;;;4918433;29;19926;-93
2023/08/04 03:45:00;;;;;;;;;;;;;;;;;;4918588;29;19923;-92
2023/08/04 03:47:29;;;;;;;;;;;;;;;;;;4934318;29;20283;-92
2023/08/04 03:49:55;;;;;;;;;;;;;;;;;;4921002;29;20005;-93
2023/08/04 03:52:21;;;;;;;;;;;;;;;;;;4922612;29;20035;-92
2023/08/04 03:54:47;;;;;;;;;;;;;;;;;;4922339;29;19923;-93
2023/08/04 03:57:13;;;;;;;;;;;;;;;;;;4922100;29;19922;-93
2023/08/04 03:59:39;;;;;;;;;;;;;;;;;;4937576;29;19973;-92
2023/08/04 04:02:05;;;;;;;;;;;;;;;;;;4921968;29;19961;-93
2023/08/04 04:04:31;;;;;;;;;;;;;;;;;;4937720;29;19966;-93
2023/08/04 04:06:59;;;;;;;;;;;;;;;;;;4937457;29;20377;-93
2023/08/04 04:09:25;;;;;;;;;;;;;;;;;;4922176;29;19974;-95
2023/08/04 04:11:51;;;;;;;;;;;;;;;;;;4938107;29;19923;-95
2023/08/04 04:14:17;;;;;;;;;;;;;;;;;;4938231;29;19923;-95
2023/08/04 04:16:43;;;;;;;;;;;;;;;;;;4921569;29;20312;-92
2023/08/04 04:19:11;;;;;;;;;;;;;;;;;;4936752;29;19962;-93
2023/08/04 04:21:37;;;;;;;;;;;;;;;;;;4937965;29;20335;-93
2023/08/04 04:24:03;;;;;;;;;;;;;;;;;;4921933;29;20009;-92
2023/08/04 04:26:31;;;;;;;;;;;;;;;;;;4921321;29;19923;-92
2023/08/04 04:28:57;;;;;;;;;;;;;;;;;;4938478;29;19935;-95
2023/08/04 04:31:25;;;;;;;;;;;;;;;;;;4937678;29;19922;-95
2023/08/04 04:33:51;;;;;;;;;;;;;;;;;;4937278;29;19927;-95
2023/08/04 04:36:17;;;;;;;;;;;;;;;;;;4921337;29;20116;-95
2023/08/04 04:38:43;;;;;;;;;;;;;;;;;;4921574;29;20017;-94
2023/08/04 04:41:09;;;;;;;;;;;;;;;;;;4937257;29;20394;-92
2023/08/04 04:43:35;;;;;;;;;;;;;;;;;;4938205;29;19922;-92
2023/08/04 04:46:03;;;;;;;;;;;;;;;;;;4937035;29;20005;-92
2023/08/04 04:48:29;;;;;;;;;;;;;;;;;;4921299;29;20021;-93
2023/08/04 04:50:55;;;;;;;;;;;;;;;;;;4920975;29;20354;-93
2023/08/04 04:53:21;;;;;;;;;;;;;;;;;;4921196;29;19929;-92
2023/08/04 04:55:47;;;;;;;;;;;;;;;;;;4920857;29;20017;-92
2023/08/04 04:58:13;;;;;;;;;;;;;;;;;;4937873;29;20408;-93
2023/08/04 05:00:38;;;;;;;;;;;;;;;;;;4919973;29;19966;-93
2023/08/04 05:03:06;;;;;;;;;;;;;;;;;;4920587;29;19923;-91
2023/08/04 05:05:32;;;;;;;;;;;;;;;;;;4937982;29;19922;-92
2023/08/04 05:07:58;;;;;;;;;;;;;;;;;;4920990;29;19950;-92
2023/08/04 05:10:24;;;;;;;;;;;;;;;;;;4920865;29;20261;-92
2023/08/04 05:12:50;;;;;;;;;;;;;;;;;;4920461;29;19923;-91
2023/08/04 05:15:16;;;;;;;;;;;;;;;;;;4936475;29;19981;-91
2023/08/04 05:17:41;;;;;;;;;;;;;;;;;;4920447;29;19927;-92
2023/08/04 05:20:08;;;;;;;;;;;;;;;;;;4936526;29;19981;-92
2023/08/04 05:22:33;;;;;;;;;;;;;;;;;;4920486;29;19922;-92
2023/08/04 05:24:59;;;;;;;;;;;;;;;;;;4920218;29;19923;-91
2023/08/04 05:27:25;;;;;;;;;;;;;;;;;;4937125;29;20382;-89
2023/08/04 05:29:51;;;;;;;;;;;;;;;;;;4936554;29;19930;-92
2023/08/04 05:32:17;;;;;;;;;;;;;;;;;;4920127;29;19981;-91
2023/08/04 05:34:43;;;;;;;;;;;;;;;;;;4935555;29;20013;-91
2023/08/04 05:37:09;;;;;;;;;;;;;;;;;;4935949;29;19938;-91
2023/08/04 05:39:35;;;;;;;;;;;;;;;;;;4919620;29;19923;-91
2023/08/04 05:42:01;;;;;;;;;;;;;;;;;;4919667;29;19923;-92
2023/08/04 05:44:27;;;;;;;;;;;;;;;;;;4920315;29;19969;-92
2023/08/04 05:46:53;;;;;;;;;;;;;;;;;;4920061;29;19923;-93
2023/08/04 05:49:19;;;;;;;;;;;;;;;;;;4919375;29;20378;-93
2023/08/04 05:51:45;;;;;;;;;;;;;;;;;;4919947;29;19927;-92
2023/08/04 05:54:11;;;;;;;;;;;;;;;;;;4919842;29;19934;-93
2023/08/04 05:56:37;;;;;;;;;;;;;;;;;;4935807;29;20430;-93
2023/08/04 05:59:03;;;;;;;;;;;;;;;;;;4920513;29;19931;-94
2023/08/04 06:01:28;;;;;;;;;;;;;;;;;;4919892;29;19923;-95
2023/08/04 06:03:54;;;;;;;;;;;;;;;;;;4919569;29;19974;-94
2023/08/04 06:06:20;;;;;;;;;;;;;;;;;;4925942;29;19922;-94
2023/08/04 06:08:46;;;;;;;;;;;;;;;;;;4951709;29;19938;-94
2023/08/04 06:11:12;;;;;;;;;;;;;;;;;;4951739;29;19985;-94
2023/08/04 06:13:39;;;;;;;;;;;;;;;;;;4951372;28;19926;-93
2023/08/04 06:16:05;;;;;;;;;;;;;;;;;;4934983;29;19934;-94
2023/08/04 06:21:35;;;;;;;;;;;;;;;;;;4954794;28;19929;-93
2023/08/04 06:24:03;;;;;;;;;;;;;;;;;;4951019;29;19922;-93
2023/08/04 06:26:29;;;;;;;;;;;;;;;;;;4930719;29;19933;-92
2023/08/04 06:28:55;;;;;;;;;;;;;;;;;;4919205;29;19930;-93
2023/08/04 06:31:21;;;;;;;;;;;;;;;;;;4919378;29;19972;-92
2023/08/04 06:33:46;;;;;;;;;;;;;;;;;;4935026;29;19922;-91
2023/08/04 06:36:12;;;;;;;;;;;;;;;;;;4918615;29;19929;-92
2023/08/04 06:38:38;;;;;;;;;;;;;;;;;;4919337;29;20014;-95
2023/08/04 06:41:04;;;;;;;;;;;;;;;;;;4919655;29;19927;-89
2023/08/04 06:43:30;;;;;;;;;;;;;;;;;;4918921;29;19923;-93
2023/08/04 06:45:56;;;;;;;;;;;;;;;;;;4934825;29;20243;-94
2023/08/04 06:48:24;;;;;;;;;;;;;;;;;;4918746;29;20030;-93
2023/08/04 06:50:50;;;;;;;;;;;;;;;;;;4935321;29;20005;-95
2023/08/04 06:53:25;;;;;;;;;;;;;;;;;;4919387;29;19973;-96
2023/08/04 06:55:51;;;;;;;;;;;;;;;;;;4919196;29;20007;-96
2023/08/04 06:58:16;;;;;;;;;;;;;;;;;;4919143;29;19967;-93
2023/08/04 07:00:42;;;;;;;;;;;;;;;;;;4919249;29;19923;-92
2023/08/04 07:03:11;;;;;;;;;;;;;;;;;;4934430;29;19929;-89
2023/08/04 07:05:37;;;;;;;;;;;;;;;;;;4918955;29;19962;-94
2023/08/04 07:08:03;;;;;;;;;;;;;;;;;;4934912;29;19986;-94
2023/08/04 07:10:29;;;;;;;;;;;;;;;;;;4919342;29;20013;-93
2023/08/04 07:12:55;;;;;;;;;;;;;;;;;;4918755;29;20590;-93
2023/08/04 07:15:20;;;;;;;;;;;;;;;;;;4918888;29;19923;-93
2023/08/04 07:17:46;;;;;;;;;;;;;;;;;;4934897;29;19927;-94
2023/08/04 07:20:12;;;;;;;;;;;;;;;;;;4919698;29;20335;-94
2023/08/04 07:22:41;;;;;;;;;;;;;;;;;;4919329;29;20287;-93
2023/08/04 07:25:07;;;;;;;;;;;;;;;;;;4918838;29;20022;-94
2023/08/04 07:30:39;;;;;;;;;;;;;;;;;;4935974;29;19929;-93
2023/08/04 07:33:08;;;;;;;;;;;;;;;;;;4934708;29;19922;-94
2023/08/04 07:35:34;;;;;;;;;;;;;;;;;;4918587;29;20430;-93
2023/08/04 07:38:01;;;;;;;;;;;;;;;;;;4960443;23;19927;-92
2023/08/04 07:40:27;;;;;;;;;;;;;;;;;;4915592;29;19942;-94
2023/08/04 07:42:52;;;;;;;;;;;;;;;;;;4931249;29;19924;-92
2023/08/04 07:45:18;;;;;;;;;;;;;;;;;;4930355;29;19981;-91
2023/08/04 07:47:44;;;;;;;;;;;;;;;;;;4926969;29;20388;-91
2023/08/04 07:50:10;;;;;;;;;;;;;;;;;;4896083;29;20006;-92
2023/08/04 07:52:36;;;;;;;;;;;;;;;;;;4912165;29;19970;-92
2023/08/04 07:55:02;;;;;;;;;;;;;;;;;;4912210;29;19927;-93
2023/08/04 07:57:28;;;;;;;;;;;;;;;;;;4927812;29;19924;-92
2023/08/04 07:59:54;;;;;;;;;;;;;;;;;;4911552;29;19930;-91
2023/08/04 08:02:23;;;;;;;;;;;;;;;;;;4896925;29;20334;-91
2023/08/04 08:04:49;;;;;;;;;;;;;;;;;;4927679;29;19923;-94
2023/08/04 08:07:15;;;;;;;;;;;;;;;;;;4912327;29;19930;-94
2023/08/04 08:09:44;;;;;;;;;;;;;;;;;;4912468;29;20366;-96
2023/08/04 08:12:10;;;;;;;;;;;;;;;;;;4930725;29;19923;-91
2023/08/04 08:14:36;;;;;;;;;;;;;;;;;;4913868;29;19945;-90
2023/08/04 08:17:02;;;;;;;;;;;;;;;;;;4913993;29;20367;-91
2023/08/04 08:19:28;;;;;;;;;;;;;;;;;;4914389;29;20022;-90
2023/08/04 08:21:54;;;;;;;;;;;;;;;;;;4898848;29;19923;-90
2023/08/04 08:24:20;;;;;;;;;;;;;;;;;;4914653;29;19923;-91
2023/08/04 08:26:45;;;;;;;;;;;;;;;;;;4898206;29;19923;-91
2023/08/04 08:29:11;;;;;;;;;;;;;;;;;;4899012;29;19931;-91
2023/08/04 08:31:39;;;;;;;;;;;;;;;;;;4898681;29;19942;-90
2023/08/04 08:34:05;;;;;;;;;;;;;;;;;;4898657;29;19930;-91
2023/08/04 08:36:31;;;;;;;;;;;;;;;;;;4916884;29;19924;-93
2023/08/04 08:38:57;;;;;;;;;;;;;;;;;;4917820;29;19923;-93
2023/08/04 08:41:23;;;;;;;;;;;;;;;;;;4920062;29;19927;-89
2023/08/04 08:43:49;;;;;;;;;;;;;;;;;;4922450;29;20150;-93
2023/08/04 08:46:15;;;;;;;;;;;;;;;;;;4907361;29;19951;-94
2023/08/04 08:48:41;;;;;;;;;;;;;;;;;;4903665;29;19931;-90
2023/08/04 08:51:06;;;;;;;;;;;;;;;;;;4917829;29;19923;-92
2023/08/04 08:53:34;;;;;;;;;;;;;;;;;;4917658;29;19923;-90
2023/08/04 08:56:00;;;;;;;;;;;;;;;;;;4917814;29;19924;-93
2023/08/04 08:58:26;;;;;;;;;;;;;;;;;;4919066;29;20006;-94
2023/08/04 09:00:55;;;;;;;;;;;;;;;;;;4920084;29;20430;-94
2023/08/04 09:03:21;;;;;;;;;;;;;;;;;;4904486;29;20022;-95
2023/08/04 09:05:57;;;;;;;;;;;;;;;;;;5039511;23;20388;-94
2023/08/04 09:08:23;;;;;;;;;;;;;;;;;;4913129;29;19928;-91
2023/08/04 09:10:49;;;;;;;;;;;;;;;;;;4898739;29;19934;-92
2023/08/04 09:13:15;;;;;;;;;;;;;;;;;;4914472;29;19966;-92
2023/08/04 09:15:41;;;;;;;;;;;;;;;;;;4898665;29;19923;-91
2023/08/04 09:18:07;;;;;;;;;;;;;;;;;;4898784;29;19931;-92
2023/08/04 09:20:33;;;;;;;;;;;;;;;;;;4913953;29;19978;-92
2023/08/04 09:22:59;;;;;;;;;;;;;;;;;;4898414;29;19934;-93
2023/08/04 09:25:25;;;;;;;;;;;;;;;;;;4914154;29;20388;-92
2023/08/04 09:27:51;;;;;;;;;;;;;;;;;;4898175;29;19924;-92
2023/08/04 09:30:17;;;;;;;;;;;;;;;;;;4897986;29;19923;-91
2023/08/04 09:32:43;;;;;;;;;;;;;;;;;;4898542;29;19923;-93
2023/08/04 09:35:08;;;;;;;;;;;;;;;;;;4897928;29;19930;-91
2023/08/04 09:37:34;;;;;;;;;;;;;;;;;;4913418;29;19927;-92
2023/08/04 09:40:00;;;;;;;;;;;;;;;;;;4897343;29;19934;-91
2023/08/04 09:42:26;;;;;;;;;;;;;;;;;;4897726;29;19923;-92
2023/08/04 09:44:52;;;;;;;;;;;;;;;;;;4897884;29;20006;-90
2023/08/04 09:47:18;;;;;;;;;;;;;;;;;;4896772;29;19923;-91
2023/08/04 09:49:44;;;;;;;;;;;;;;;;;;4913317;29;19938;-91
2023/08/04 09:52:10;;;;;;;;;;;;;;;;;;4897135;29;20380;-90
2023/08/04 09:54:36;;;;;;;;;;;;;;;;;;4913453;29;19987;-91
2023/08/04 09:57:04;;;;;;;;;;;;;;;;;;4899848;29;20374;-92
2023/08/04 09:59:30;;;;;;;;;;;;;;;;;;4898008;29;19943;-91
2023/08/04 10:01:56;;;;;;;;;;;;;;;;;;4897407;29;19924;-92
2023/08/04 10:04:22;;;;;;;;;;;;;;;;;;4897416;29;20014;-92
2023/08/04 10:06:48;;;;;;;;;;;;;;;;;;4896893;29;19938;-92
2023/08/04 10:09:14;;;;;;;;;;;;;;;;;;4913630;29;19976;-93
2023/08/04 10:11:40;;;;;;;;;;;;;;;;;;4898641;29;19923;-92
2023/08/04 10:14:06;;;;;;;;;;;;;;;;;;4899077;29;20010;-92
2023/08/04 10:16:31;;;;;;;;;;;;;;;;;;4896970;29;19924;-92
2023/08/04 10:18:57;;;;;;;;;;;;;;;;;;4913508;29;19929;-93
2023/08/04 10:21:23;;;;;;;;;;;;;;;;;;4896925;29;19946;-92
2023/08/04 10:23:49;;;;;;;;;;;;;;;;;;4896939;29;19987;-90
2023/08/04 10:26:15;;;;;;;;;;;;;;;;;;4896880;29;19923;-92
2023/08/04 10:28:41;;;;;;;;;;;;;;;;;;4897113;29;19932;-91
2023/08/04 10:31:07;;;;;;;;;;;;;;;;;;4912960;29;19931;-91
2023/08/04 10:33:33;;;;;;;;;;;;;;;;;;4896843;29;20394;-91
2023/08/04 10:35:59;;;;;;;;;;;;;;;;;;4896646;29;19930;-91
2023/08/04 10:38:25;;;;;;;;;;;;;;;;;;4912854;29;19923;-92
2023/08/04 10:40:51;;;;;;;;;;;;;;;;;;4898152;29;19930;-91
2023/08/04 10:43:17;;;;;;;;;;;;;;;;;;4896978;29;19923;-93
2023/08/04 10:45:43;;;;;;;;;;;;;;;;;;4912833;29;20300;-91
2023/08/04 10:48:09;;;;;;;;;;;;;;;;;;4896799;29;19935;-92
2023/08/04 10:50:35;;;;;;;;;;;;;;;;;;4896623;29;19934;-94
2023/08/04 10:53:01;;;;;;;;;;;;;;;;;;4897169;29;20022;-92
2023/08/04 10:55:27;;;;;;;;;;;;;;;;;;4897000;29;19930;-90
2023/08/04 10:57:53;;;;;;;;;;;;;;;;;;4896032;29;19979;-89
2023/08/04 11:00:19;;;;;;;;;;;;;;;;;;4895622;29;19924;-90
2023/08/04 11:02:44;;;;;;;;;;;;;;;;;;4897489;29;20010;-91
2023/08/04 11:05:14;;;;;;;;;;;;;;;;;;4898557;29;19927;-90
2023/08/04 11:07:40;;;;;;;;;;;;;;;;;;4905741;29;20371;-91
2023/08/04 11:10:06;;;;;;;;;;;;;;;;;;4917594;29;19966;-92
2023/08/04 11:12:33;;;;;;;;;;;;;;;;;;4915138;29;19927;-92
2023/08/04 11:14:59;;;;;;;;;;;;;;;;;;4916818;29;19923;-92
2023/08/04 11:17:26;;;;;;;;;;;;;;;;;;4898535;29;19950;-92
2023/08/04 11:19:52;;;;;;;;;;;;;;;;;;4896558;29;19924;-92
2023/08/04 11:22:21;;;;;;;;;;;;;;;;;;4912278;29;19923;-90
2023/08/04 11:24:47;;;;;;;;;;;;;;;;;;4897891;29;19989;-96
2023/08/04 11:27:13;;;;;;;;;;;;;;;;;;4902559;29;19923;-92
2023/08/04 11:29:39;;;;;;;;;;;;;;;;;;4914571;29;19927;-91
2023/08/04 11:32:05;;;;;;;;;;;;;;;;;;4895834;29;20000;-90
2023/08/04 11:34:31;;;;;;;;;;;;;;;;;;4911685;29;20268;-89
2023/08/04 11:36:57;;;;;;;;;;;;;;;;;;4896103;29;20372;-91
2023/08/04 11:39:23;;;;;;;;;;;;;;;;;;4911730;29;19943;-92
2023/08/04 11:41:49;;;;;;;;;;;;;;;;;;4912160;29;19982;-90
2023/08/04 11:44:16;;;;;;;;;;;;;;;;;;4896086;29;19975;-90
2023/08/04 11:46:42;;;;;;;;;;;;;;;;;;4911746;29;19923;-90
2023/08/04 11:49:08;;;;;;;;;;;;;;;;;;4895652;29;20014;-90
2023/08/04 11:51:33;;;;;;;;;;;;;;;;;;4911427;29;19923;-91
2023/08/04 11:53:59;;;;;;;;;;;;;;;;;;4895908;29;19924;-91
2023/08/04 11:56:25;;;;;;;;;;;;;;;;;;4896081;29;19946;-90
2023/08/04 11:58:54;;;;;;;;;;;;;;;;;;4905740;29;19931;-90
2023/08/04 12:01:20;;;;;;;;;;;;;;;;;;4915085;29;19929;-90
2023/08/04 12:03:47;;;;;;;;;;;;;;;;;;4895780;29;20014;-90
2023/08/04 12:06:13;;;;;;;;;;;;;;;;;;4896673;29;19938;-91
2023/08/04 12:08:39;;;;;;;;;;;;;;;;;;4879325;29;20003;-90
2023/08/04 12:11:05;;;;;;;;;;;;;;;;;;4914020;29;19935;-91
2023/08/04 12:13:31;;;;;;;;;;;;;;;;;;4899344;29;19924;-89
2023/08/04 12:15:57;;;;;;;;;;;;;;;;;;4914867;29;19923;-89
2023/08/04 12:18:23;;;;;;;;;;;;;;;;;;4899253;29;19983;-90
2023/08/04 12:20:49;;;;;;;;;;;;;;;;;;4898987;29;20003;-89
2023/08/04 12:23:15;;;;;;;;;;;;;;;;;;4915241;29;19927;-90
2023/08/04 12:25:41;;;;;;;;;;;;;;;;;;4899028;29;19924;-90
2023/08/04 12:28:07;;;;;;;;;;;;;;;;;;4898897;29;19928;-89
2023/08/04 12:30:32;;;;;;;;;;;;;;;;;;4900338;29;20010;-90
2023/08/04 12:32:58;;;;;;;;;;;;;;;;;;4899007;29;19930;-90
2023/08/04 12:35:24;;;;;;;;;;;;;;;;;;4914968;29;19931;-91
2023/08/04 12:37:50;;;;;;;;;;;;;;;;;;4899128;29;20341;-90
2023/08/04 12:40:16;;;;;;;;;;;;;;;;;;4900486;29;20357;-91
2023/08/04 12:42:42;;;;;;;;;;;;;;;;;;4898772;29;19931;-90
2023/08/04 12:45:08;;;;;;;;;;;;;;;;;;4898583;29;19934;-92
2023/08/04 12:47:34;;;;;;;;;;;;;;;;;;4898804;29;19975;-93
2023/08/04 12:50:00;;;;;;;;;;;;;;;;;;4898429;29;20341;-89
2023/08/04 12:52:26;;;;;;;;;;;;;;;;;;4914213;29;20342;-91
2023/08/04 12:54:51;;;;;;;;;;;;;;;;;;4899746;29;19924;-90
2023/08/04 12:57:17;;;;;;;;;;;;;;;;;;4914227;29;20003;-91
2023/08/04 12:59:43;;;;;;;;;;;;;;;;;;4898373;29;19923;-89
2023/08/04 13:02:09;;;;;;;;;;;;;;;;;;4898256;29;19931;-92
2023/08/04 13:04:35;;;;;;;;;;;;;;;;;;4899530;29;19933;-92
2023/08/04 13:07:01;;;;;;;;;;;;;;;;;;4914270;29;19939;-92
2023/08/04 13:09:27;;;;;;;;;;;;;;;;;;4898162;29;19935;-94
2023/08/04 13:11:53;;;;;;;;;;;;;;;;;;4898630;29;20010;-93
2023/08/04 13:14:19;;;;;;;;;;;;;;;;;;4898419;29;19974;-93
2023/08/04 13:16:46;;;;;;;;;;;;;;;;;;4898831;29;20003;-93
2023/08/04 13:19:12;;;;;;;;;;;;;;;;;;4914925;29;20014;-94
2023/08/04 13:21:38;;;;;;;;;;;;;;;;;;4912800;29;19970;-93
2023/08/04 13:24:04;;;;;;;;;;;;;;;;;;4898750;29;19923;-94
2023/08/04 13:26:32;;;;;;;;;;;;;;;;;;4898446;29;19956;-94
2023/08/04 13:28:58;;;;;;;;;;;;;;;;;;4898660;29;19980;-94
2023/08/04 13:31:24;;;;;;;;;;;;;;;;;;4898234;29;19927;-93
2023/08/04 13:33:53;;;;;;;;;;;;;;;;;;4898533;29;20066;-93
2023/08/04 13:36:19;;;;;;;;;;;;;;;;;;4914165;29;19956;-93
2023/08/04 13:38:45;;;;;;;;;;;;;;;;;;4913972;29;19927;-93
2023/08/04 13:41:10;;;;;;;;;;;;;;;;;;4898365;29;19931;-93
2023/08/04 13:43:37;;;;;;;;;;;;;;;;;;4913587;29;20023;-93
2023/08/04 13:46:02;;;;;;;;;;;;;;;;;;4913574;29;19954;-93
2023/08/04 13:48:28;;;;;;;;;;;;;;;;;;4913555;29;19935;-93
2023/08/04 13:50:54;;;;;;;;;;;;;;;;;;4913632;29;19932;-93
2023/08/04 13:53:20;;;;;;;;;;;;;;;;;;4898062;29;20002;-93
2023/08/04 13:55:46;;;;;;;;;;;;;;;;;;4897966;29;20022;-92
2023/08/04 13:58:12;;;;;;;;;;;;;;;;;;4897365;29;19923;-95
2023/08/04 14:00:38;;;;;;;;;;;;;;;;;;4913506;29;19946;-91
2023/08/04 14:03:04;;;;;;;;;;;;;;;;;;4901485;29;19922;-91
2023/08/04 14:05:30;;;;;;;;;;;;;;;;;;4916022;29;19927;-92
2023/08/04 14:07:56;;;;;;;;;;;;;;;;;;4915946;29;19985;-92
2023/08/04 14:10:23;;;;;;;;;;;;;;;;;;4931829;29;19923;-93
2023/08/04 14:12:48;;;;;;;;;;;;;;;;;;4916010;29;19950;-93
2023/08/04 14:15:14;;;;;;;;;;;;;;;;;;4916306;29;19927;-92
2023/08/04 14:17:40;;;;;;;;;;;;;;;;;;4931653;29;20298;-92
2023/08/04 14:20:06;;;;;;;;;;;;;;;;;;4916450;29;19930;-92
2023/08/04 14:22:32;;;;;;;;;;;;;;;;;;4916159;29;19923;-92
2023/08/04 14:24:58;;;;;;;;;;;;;;;;;;4904676;29;19924;-92
2023/08/04 14:27:24;;;;;;;;;;;;;;;;;;4897617;29;20012;-92
2023/08/04 14:29:50;;;;;;;;;;;;;;;;;;4896995;29;20003;-92
2023/08/04 14:32:16;;;;;;;;;;;;;;;;;;4896821;29;20336;-93
2023/08/04 14:34:42;;;;;;;;;;;;;;;;;;4898101;29;19982;-92
2023/08/04 14:37:08;;;;;;;;;;;;;;;;;;4897539;29;19930;-92
2023/08/04 14:39:35;;;;;;;;;;;;;;;;;;4912953;29;19978;-94
2023/08/04 14:42:01;;;;;;;;;;;;;;;;;;4896899;29;20002;-92
2023/08/04 14:44:27;;;;;;;;;;;;;;;;;;4901208;29;19955;-94
2023/08/04 14:46:55;;;;;;;;;;;;;;;;;;4915865;29;19924;-94
2023/08/04 14:49:21;;;;;;;;;;;;;;;;;;4899976;29;19934;-91
2023/08/04 14:51:47;;;;;;;;;;;;;;;;;;4898407;29;20284;-94
2023/08/04 14:54:13;;;;;;;;;;;;;;;;;;4907954;29;20098;-92
2023/08/04 14:56:39;;;;;;;;;;;;;;;;;;4917265;29;20373;-92
2023/08/04 14:59:05;;;;;;;;;;;;;;;;;;4897251;29;20015;-92
2023/08/04 15:01:31;;;;;;;;;;;;;;;;;;4912620;29;19924;-92
2023/08/04 15:03:57;;;;;;;;;;;;;;;;;;4913039;29;19930;-93
2023/08/04 15:06:23;;;;;;;;;;;;;;;;;;4896556;29;20011;-92
2023/08/04 15:08:49;;;;;;;;;;;;;;;;;;4896691;29;20018;-92
2023/08/04 15:11:15;;;;;;;;;;;;;;;;;;4896749;29;19927;-92
2023/08/04 15:13:46;;;;;;;;;;;;;;;;;;4896344;29;19924;-92
2023/08/04 15:16:13;;;;;;;;;;;;;;;;;;4912453;29;20403;-93
2023/08/04 15:18:38;;;;;;;;;;;;;;;;;;4896859;29;20033;-93
2023/08/04 15:21:04;;;;;;;;;;;;;;;;;;4898138;29;19928;-93
2023/08/04 15:23:30;;;;;;;;;;;;;;;;;;4912147;29;19979;-92
2023/08/04 15:25:57;;;;;;;;;;;;;;;;;;4897373;29;20269;-88
2023/08/04 15:28:23;;;;;;;;;;;;;;;;;;4896139;29;20075;-88
2023/08/04 15:30:49;;;;;;;;;;;;;;;;;;4896029;29;20530;-88
2023/08/04 15:33:18;;;;;;;;;;;;;;;;;;4895838;29;19934;-89
2023/08/04 15:35:45;;;;;;;;;;;;;;;;;;4911671;29;20038;-88
2023/08/04 15:38:11;;;;;;;;;;;;;;;;;;4897278;29;19979;-89
2023/08/04 15:40:40;;;;;;;;;;;;;;;;;;4895779;29;19952;-92
2023/08/04 15:43:05;;;;;;;;;;;;;;;;;;4898344;29;20375;-90
2023/08/04 15:45:31;;;;;;;;;;;;;;;;;;4913096;29;20019;-89
2023/08/04 15:47:57;;;;;;;;;;;;;;;;;;4899829;29;19931;-91
2023/08/04 15:50:23;;;;;;;;;;;;;;;;;;4900141;29;19975;-91
2023/08/04 15:52:49;;;;;;;;;;;;;;;;;;4899916;29;20070;-90
2023/08/04 15:55:15;;;;;;;;;;;;;;;;;;4900010;29;19927;-91
2023/08/04 15:57:41;;;;;;;;;;;;;;;;;;4899941;29;20010;-89
2023/08/04 16:00:07;;;;;;;;;;;;;;;;;;4900969;29;19954;-90
2023/08/04 16:02:33;;;;;;;;;;;;;;;;;;4900984;29;20364;-90
2023/08/04 16:04:59;;;;;;;;;;;;;;;;;;4899384;29;19923;-88
2023/08/04 16:07:25;;;;;;;;;;;;;;;;;;4904332;29;19930;-90
2023/08/04 16:09:51;;;;;;;;;;;;;;;;;;4916472;29;19927;-89
2023/08/04 16:12:16;;;;;;;;;;;;;;;;;;4899637;29;19924;-90
2023/08/04 16:14:42;;;;;;;;;;;;;;;;;;4904041;29;19935;-88
2023/08/04 16:17:08;;;;;;;;;;;;;;;;;;4902654;29;19952;-89
2023/08/04 16:19:34;;;;;;;;;;;;;;;;;;4899796;29;20328;-88
2023/08/04 16:22:00;;;;;;;;;;;;;;;;;;4906057;29;19927;-89
2023/08/04 16:24:26;;;;;;;;;;;;;;;;;;4913510;29;19924;-90
2023/08/04 16:26:53;;;;;;;;;;;;;;;;;;4934265;29;20295;-90
2023/08/04 16:29:19;;;;;;;;;;;;;;;;;;4912053;29;19983;-88
2023/08/04 16:31:45;;;;;;;;;;;;;;;;;;4911749;29;20119;-89
2023/08/04 16:34:11;;;;;;;;;;;;;;;;;;4929222;29;19971;-89
2023/08/04 16:36:37;;;;;;;;;;;;;;;;;;4901064;29;19930;-90
2023/08/04 16:39:03;;;;;;;;;;;;;;;;;;4914977;29;19930;-90
2023/08/04 16:41:30;;;;;;;;;;;;;;;;;;4914843;29;19923;-88
2023/08/04 16:43:56;;;;;;;;;;;;;;;;;;4900325;29;20318;-89